createdAt,value
2019-01-11T00:00:13.415Z,420.22
2019-01-11T00:01:13.381Z,419.48
2019-01-11T00:02:13.374Z,419.73
2019-01-11T00:03:13.343Z,418.78
2019-01-11T00:04:13.342Z,418.39
2019-01-11T00:05:13.360Z,419.17
2019-01-11T00:06:13.354Z,420.06
2019-01-11T00:07:13.296Z,418.73
2019-01-11T00:08:13.370Z,419.07
2019-01-11T00:09:13.294Z,419.58
2019-01-11T00:10:13.302Z,419.60
2019-01-11T00:11:13.280Z,419.17
2019-01-11T00:12:13.268Z,419.85
2019-01-11T00:13:13.244Z,420.63
2019-01-11T00:14:13.243Z,419.62
2019-01-11T00:15:13.237Z,420.70
2019-01-11T00:16:13.229Z,419.87
2019-01-11T00:17:13.236Z,420.34
2019-01-11T00:18:13.239Z,418.90
2019-01-11T00:19:13.196Z,419.63
2019-01-11T00:20:13.193Z,420.19
2019-01-11T00:21:13.167Z,419.57
2019-01-11T00:22:13.163Z,419.62
2019-01-11T00:23:13.736Z,420.29
2019-01-11T00:24:13.145Z,419.41
2019-01-11T00:25:13.161Z,419.57
2019-01-11T00:26:13.126Z,419.82
2019-01-11T00:27:13.120Z,420.01
2019-01-11T00:28:13.121Z,418.43
2019-01-11T00:29:13.092Z,417.97
2019-01-11T00:30:13.162Z,419.56
2019-01-11T00:31:13.064Z,419.04
2019-01-11T00:32:13.048Z,419.62
2019-01-11T00:33:13.042Z,417.80
2019-01-11T00:34:13.037Z,418.38
2019-01-11T00:35:13.069Z,419.24
2019-01-11T00:36:13.024Z,418.47
2019-01-11T00:37:12.982Z,420.21
2019-01-11T00:38:12.985Z,419.41
2019-01-11T00:39:12.986Z,417.55
2019-01-11T00:40:12.976Z,420.65
2019-01-11T00:41:21.069Z,419.65
2019-01-11T00:42:20.196Z,419.20
2019-01-11T00:43:15.185Z,420.08
2019-01-11T00:44:12.983Z,419.66
2019-01-11T00:45:12.932Z,419.02
2019-01-11T00:46:13.787Z,419.75
2019-01-11T00:47:12.903Z,419.94
2019-01-11T00:48:12.905Z,418.70
2019-01-11T00:49:13.720Z,419.48
2019-01-11T00:50:12.870Z,417.91
2019-01-11T00:51:12.849Z,418.61
2019-01-11T00:52:12.843Z,419.45
2019-01-11T00:53:12.834Z,418.09
2019-01-11T00:54:12.835Z,419.73
2019-01-11T00:55:12.854Z,419.98
2019-01-11T00:56:12.843Z,420.06
2019-01-11T00:57:12.863Z,419.68
2019-01-11T00:58:13.743Z,419.15
2019-01-11T00:59:12.893Z,419.56
2019-01-11T01:00:12.799Z,420.35
2019-01-11T01:01:12.765Z,418.75
2019-01-11T01:02:12.744Z,420.08
2019-01-11T01:03:12.747Z,420.18
2019-01-11T01:04:12.743Z,420.94
2019-01-11T01:05:12.746Z,419.36
2019-01-11T01:06:12.692Z,418.84
2019-01-11T01:07:12.691Z,420.55
2019-01-11T01:08:12.677Z,419.08
2019-01-11T01:09:12.688Z,419.97
2019-01-11T01:10:12.690Z,420.09
2019-01-11T01:11:12.672Z,420.17
2019-01-11T01:12:12.620Z,420.83
2019-01-11T01:13:12.611Z,420.11
2019-01-11T01:14:13.315Z,419.54
2019-01-11T01:15:12.624Z,419.05
2019-01-11T01:16:12.613Z,419.93
2019-01-11T01:17:12.584Z,420.22
2019-01-11T01:18:12.552Z,419.46
2019-01-11T01:19:12.590Z,417.56
2019-01-11T01:20:12.601Z,418.58
2019-01-11T01:21:12.549Z,419.45
2019-01-11T01:22:12.542Z,419.18
2019-01-11T01:23:12.517Z,417.67
2019-01-11T01:24:12.503Z,418.60
2019-01-11T01:25:12.528Z,418.92
2019-01-11T01:26:12.490Z,418.11
2019-01-11T01:27:12.507Z,419.98
2019-01-11T01:28:12.491Z,419.58
2019-01-11T01:29:12.458Z,419.34
2019-01-11T01:30:12.510Z,419.87
2019-01-11T01:31:12.426Z,419.49
2019-01-11T01:32:12.428Z,417.85
2019-01-11T01:33:12.413Z,420.03
2019-01-11T01:34:12.423Z,419.21
2019-01-11T01:35:12.409Z,419.22
2019-01-11T01:36:12.391Z,418.60
2019-01-11T01:37:12.371Z,419.06
2019-01-11T01:38:12.367Z,417.92
2019-01-11T01:39:12.367Z,419.66
2019-01-11T01:40:12.373Z,419.32
2019-01-11T01:41:12.340Z,419.46
2019-01-11T01:42:12.332Z,418.72
2019-01-11T01:43:13.282Z,419.83
2019-01-11T01:44:12.305Z,420.10
2019-01-11T01:45:12.284Z,419.16
2019-01-11T01:46:12.284Z,419.23
2019-01-11T01:47:19.364Z,419.91
2019-01-11T01:48:21.342Z,420.03
2019-01-11T01:49:19.346Z,417.90
2019-01-11T01:50:19.332Z,417.06
2019-01-11T01:51:20.305Z,416.56
2019-01-11T01:52:19.299Z,418.48
2019-01-11T01:53:19.296Z,419.39
2019-01-11T01:54:19.380Z,419.34
2019-01-11T01:55:19.275Z,419.26
2019-01-11T01:56:20.306Z,419.83
2019-01-11T01:57:19.249Z,419.21
2019-01-11T01:58:19.227Z,418.07
2019-01-11T01:59:19.234Z,417.94
2019-01-11T02:00:20.325Z,419.33
2019-01-11T02:01:12.185Z,418.03
2019-01-11T02:02:12.103Z,417.63
2019-01-11T02:03:12.158Z,418.97
2019-01-11T02:04:12.087Z,417.46
2019-01-11T02:05:12.080Z,418.27
2019-01-11T02:06:12.112Z,418.34
2019-01-11T02:07:12.081Z,418.58
2019-01-11T02:08:12.044Z,417.06
2019-01-11T02:09:12.034Z,417.31
2019-01-11T02:10:12.615Z,418.83
2019-01-11T02:11:12.042Z,418.45
2019-01-11T02:12:12.014Z,418.46
2019-01-11T02:13:11.992Z,418.24
2019-01-11T02:14:11.976Z,417.30
2019-01-11T02:15:11.977Z,418.38
2019-01-11T02:16:11.996Z,417.99
2019-01-11T02:17:19.040Z,417.00
2019-01-11T02:18:19.748Z,417.70
2019-01-11T02:19:20.587Z,417.29
2019-01-11T02:20:11.969Z,419.42
2019-01-11T02:21:11.941Z,417.25
2019-01-11T02:22:11.927Z,418.23
2019-01-11T02:23:11.946Z,418.20
2019-01-11T02:24:11.898Z,418.64
2019-01-11T02:25:11.900Z,420.12
2019-01-11T02:26:11.868Z,420.12
2019-01-11T02:27:19.945Z,418.92
2019-01-11T02:28:20.744Z,418.95
2019-01-11T02:29:11.868Z,416.80
2019-01-11T02:30:18.875Z,418.81
2019-01-11T02:31:11.899Z,417.23
2019-01-11T02:32:11.796Z,418.02
2019-01-11T02:33:11.792Z,418.11
2019-01-11T02:34:11.787Z,417.74
2019-01-11T02:35:11.777Z,418.58
2019-01-11T02:36:11.800Z,418.07
2019-01-11T02:37:11.757Z,418.79
2019-01-11T02:38:11.736Z,417.63
2019-01-11T02:39:11.727Z,416.78
2019-01-11T02:40:12.258Z,417.10
2019-01-11T02:41:11.740Z,417.98
2019-01-11T02:42:11.707Z,418.21
2019-01-11T02:43:11.715Z,418.10
2019-01-11T02:44:11.672Z,418.67
2019-01-11T02:45:11.659Z,417.42
2019-01-11T02:46:11.669Z,419.17
2019-01-11T02:47:11.657Z,417.90
2019-01-11T02:48:11.642Z,419.45
2019-01-11T02:49:11.629Z,419.44
2019-01-11T02:50:11.612Z,418.05
2019-01-11T02:51:11.621Z,419.06
2019-01-11T02:52:11.602Z,418.44
2019-01-11T02:53:11.607Z,419.30
2019-01-11T02:54:11.600Z,418.17
2019-01-11T02:55:11.611Z,419.29
2019-01-11T02:56:11.594Z,419.18
2019-01-11T02:57:12.230Z,419.22
2019-01-11T02:58:11.540Z,418.60
2019-01-11T02:59:11.538Z,416.75
2019-01-11T03:00:11.529Z,418.86
2019-01-11T03:01:11.552Z,418.92
2019-01-11T03:02:11.513Z,419.38
2019-01-11T03:03:11.478Z,418.31
2019-01-11T03:04:11.477Z,418.64
2019-01-11T03:05:11.470Z,417.57
2019-01-11T03:06:11.466Z,417.00
2019-01-11T03:07:11.466Z,417.99
2019-01-11T03:08:11.432Z,419.64
2019-01-11T03:09:11.468Z,418.11
2019-01-11T03:10:11.443Z,418.56
2019-01-11T03:11:11.422Z,419.37
2019-01-11T03:12:11.405Z,417.75
2019-01-11T03:13:11.381Z,418.36
2019-01-11T03:14:11.373Z,419.10
2019-01-11T03:15:12.255Z,419.24
2019-01-11T03:16:11.368Z,417.02
2019-01-11T03:17:11.365Z,416.79
2019-01-11T03:18:11.362Z,418.03
2019-01-11T03:19:11.323Z,417.46
2019-01-11T03:20:11.329Z,419.18
2019-01-11T03:21:11.323Z,419.28
2019-01-11T03:22:11.294Z,418.80
2019-01-11T03:23:11.283Z,418.99
2019-01-11T03:24:20.412Z,419.08
2019-01-11T03:25:18.348Z,418.65
2019-01-11T03:26:18.670Z,419.22
2019-01-11T03:27:18.291Z,419.04
2019-01-11T03:28:11.264Z,418.91
2019-01-11T03:29:11.284Z,419.36
2019-01-11T03:30:11.224Z,419.20
2019-01-11T03:31:11.775Z,418.90
2019-01-11T03:32:11.182Z,418.60
2019-01-11T03:33:11.289Z,418.03
2019-01-11T03:34:11.155Z,418.83
2019-01-11T03:35:11.160Z,419.23
2019-01-11T03:36:11.279Z,417.53
2019-01-11T03:37:11.232Z,418.20
2019-01-11T03:38:11.186Z,417.10
2019-01-11T03:39:11.146Z,417.92
2019-01-11T03:40:11.157Z,419.40
2019-01-11T03:41:11.132Z,418.08
2019-01-11T03:42:11.102Z,419.07
2019-01-11T03:43:11.167Z,419.44
2019-01-11T03:44:11.069Z,418.31
2019-01-11T03:45:11.031Z,419.06
2019-01-11T03:46:11.182Z,417.75
2019-01-11T03:47:11.030Z,417.35
2019-01-11T03:48:11.039Z,417.27
2019-01-11T03:49:11.036Z,419.17
2019-01-11T03:50:10.985Z,417.58
2019-01-11T03:51:10.989Z,419.21
2019-01-11T03:52:10.983Z,418.97
2019-01-11T03:53:10.978Z,419.18
2019-01-11T03:54:10.973Z,417.44
2019-01-11T03:55:10.979Z,418.38
2019-01-11T03:56:10.919Z,416.90
2019-01-11T03:57:10.942Z,417.67
2019-01-11T03:58:10.926Z,418.08
2019-01-11T03:59:10.909Z,419.14
2019-01-11T04:00:10.916Z,419.08
2019-01-11T04:01:10.894Z,419.81
2019-01-11T04:02:10.896Z,418.38
2019-01-11T04:03:10.871Z,419.21
2019-01-11T04:04:10.856Z,418.20
2019-01-11T04:05:10.849Z,417.13
2019-01-11T04:06:10.844Z,417.61
2019-01-11T04:07:10.847Z,419.17
2019-01-11T04:08:10.803Z,418.80
2019-01-11T04:09:10.847Z,418.34
2019-01-11T04:10:10.803Z,418.23
2019-01-11T04:11:10.784Z,419.63
2019-01-11T04:12:10.789Z,418.30
2019-01-11T04:13:10.761Z,417.72
2019-01-11T04:14:10.733Z,419.90
2019-01-11T04:15:10.728Z,418.97
2019-01-11T04:16:10.736Z,418.03
2019-01-11T04:17:10.743Z,419.22
2019-01-11T04:18:10.700Z,419.15
2019-01-11T04:19:10.685Z,419.96
2019-01-11T04:20:10.674Z,418.93
2019-01-11T04:21:10.653Z,417.28
2019-01-11T04:22:10.685Z,420.05
2019-01-11T04:23:10.699Z,419.95
2019-01-11T04:24:10.631Z,418.98
2019-01-11T04:25:10.641Z,420.95
2019-01-11T04:26:10.635Z,418.37
2019-01-11T04:27:10.626Z,419.36
2019-01-11T04:28:10.633Z,419.54
2019-01-11T04:29:10.604Z,421.28
2019-01-11T04:30:10.578Z,420.00
2019-01-11T04:31:10.571Z,420.43
2019-01-11T04:32:10.588Z,420.12
2019-01-11T04:33:10.571Z,418.02
2019-01-11T04:34:10.560Z,419.12
2019-01-11T04:35:10.535Z,419.90
2019-01-11T04:36:10.513Z,419.26
2019-01-11T04:37:10.553Z,419.72
2019-01-11T04:38:10.490Z,420.27
2019-01-11T04:39:10.489Z,421.37
2019-01-11T04:40:10.508Z,421.23
2019-01-11T04:41:10.485Z,421.27
2019-01-11T04:42:10.504Z,421.66
2019-01-11T04:43:10.435Z,422.21
2019-01-11T04:44:10.434Z,420.64
2019-01-11T04:45:10.439Z,421.68
2019-01-11T04:46:10.447Z,421.37
2019-01-11T04:47:10.425Z,422.14
2019-01-11T04:48:10.410Z,420.61
2019-01-11T04:49:10.404Z,421.70
2019-01-11T04:50:10.366Z,421.12
2019-01-11T04:51:10.389Z,420.11
2019-01-11T04:52:10.400Z,421.18
2019-01-11T04:53:10.366Z,421.13
2019-01-11T04:54:10.338Z,420.37
2019-01-11T04:55:10.329Z,418.69
2019-01-11T04:56:10.302Z,421.84
2019-01-11T04:57:10.324Z,420.70
2019-01-11T04:58:10.303Z,421.63
2019-01-11T04:59:10.311Z,421.90
2019-01-11T05:00:10.261Z,422.10
2019-01-11T05:01:10.244Z,419.81
2019-01-11T05:02:10.259Z,422.55
2019-01-11T05:03:10.245Z,421.82
2019-01-11T05:04:10.240Z,421.71
2019-01-11T05:05:10.245Z,420.61
2019-01-11T05:06:10.200Z,421.68
2019-01-11T05:07:10.201Z,422.68
2019-01-11T05:08:10.196Z,422.07
2019-01-11T05:09:10.193Z,422.62
2019-01-11T05:10:10.171Z,422.32
2019-01-11T05:11:10.172Z,422.35
2019-01-11T05:12:10.186Z,420.65
2019-01-11T05:13:10.125Z,421.56
2019-01-11T05:14:10.114Z,422.37
2019-01-11T05:15:10.129Z,421.76
2019-01-11T05:16:10.108Z,421.91
2019-01-11T05:17:10.113Z,422.17
2019-01-11T05:18:17.939Z,421.49
2019-01-11T05:19:17.696Z,420.94
2019-01-11T05:20:18.152Z,419.77
2019-01-11T05:21:18.213Z,421.30
2019-01-11T05:22:10.086Z,421.91
2019-01-11T05:23:18.985Z,421.82
2019-01-11T05:24:10.043Z,421.79
2019-01-11T05:25:09.984Z,421.70
2019-01-11T05:26:10.045Z,421.74
2019-01-11T05:27:09.990Z,420.75
2019-01-11T05:28:09.987Z,421.85
2019-01-11T05:29:09.951Z,421.65
2019-01-11T05:30:09.955Z,422.52
2019-01-11T05:31:09.927Z,423.37
2019-01-11T05:32:17.014Z,422.72
2019-01-11T05:33:16.986Z,421.02
2019-01-11T05:34:17.954Z,422.00
2019-01-11T05:35:17.001Z,421.87
2019-01-11T05:36:17.977Z,421.30
2019-01-11T05:37:17.009Z,421.60
2019-01-11T05:38:16.928Z,422.61
2019-01-11T05:39:17.957Z,421.31
2019-01-11T05:40:17.691Z,421.50
2019-01-11T05:41:16.998Z,423.26
2019-01-11T05:42:09.873Z,422.65
2019-01-11T05:43:09.828Z,422.06
2019-01-11T05:44:17.883Z,421.02
2019-01-11T05:45:17.877Z,421.48
2019-01-11T05:46:09.812Z,423.27
2019-01-11T05:47:09.910Z,421.70
2019-01-11T05:48:09.796Z,420.30
2019-01-11T05:49:11.030Z,423.50
2019-01-11T05:50:09.730Z,420.76
2019-01-11T05:51:09.747Z,423.01
2019-01-11T05:52:09.762Z,421.79
2019-01-11T05:53:09.739Z,422.10
2019-01-11T05:54:09.693Z,421.72
2019-01-11T05:55:09.695Z,422.32
2019-01-11T05:56:09.687Z,422.04
2019-01-11T05:57:09.686Z,422.92
2019-01-11T05:58:09.709Z,423.16
2019-01-11T05:59:09.683Z,419.42
2019-01-11T06:00:09.639Z,421.82
2019-01-11T06:01:09.620Z,422.93
2019-01-11T06:02:09.664Z,422.12
2019-01-11T06:03:09.641Z,421.72
2019-01-11T06:04:09.619Z,421.02
2019-01-11T06:05:09.602Z,423.76
2019-01-11T06:06:09.594Z,421.51
2019-01-11T06:07:09.587Z,422.61
2019-01-11T06:08:09.575Z,421.51
2019-01-11T06:09:09.568Z,422.32
2019-01-11T06:11:21.174Z,418.30
2019-01-11T06:12:21.236Z,421.89
2019-01-11T06:13:21.157Z,420.62
2019-01-11T06:14:21.153Z,421.02
2019-01-11T06:15:21.176Z,422.88
2019-01-11T06:16:21.101Z,422.44
2019-01-11T06:17:21.127Z,422.92
2019-01-11T06:18:21.115Z,422.32
2019-01-11T06:19:21.091Z,419.98
2019-01-11T06:20:21.114Z,421.44
2019-01-11T06:21:21.070Z,420.28
2019-01-11T06:22:21.052Z,421.38
2019-01-11T06:23:21.040Z,421.25
2019-01-11T06:24:21.040Z,420.81
2019-01-11T06:25:21.024Z,422.02
2019-01-11T06:26:21.012Z,420.16
2019-01-11T06:27:20.999Z,419.45
2019-01-11T06:28:20.994Z,421.85
2019-01-11T06:29:20.970Z,421.44
2019-01-11T06:30:20.971Z,420.65
2019-01-11T06:31:20.966Z,419.92
2019-01-11T06:32:20.954Z,421.67
2019-01-11T06:33:20.994Z,422.10
2019-01-11T06:34:20.939Z,422.23
2019-01-11T06:35:20.969Z,422.01
2019-01-11T06:36:20.899Z,421.46
2019-01-11T06:37:20.905Z,421.91
2019-01-11T06:38:20.901Z,421.23
2019-01-11T06:39:20.857Z,422.07
2019-01-11T06:40:20.859Z,420.30
2019-01-11T06:41:20.847Z,422.55
2019-01-11T06:42:20.850Z,422.69
2019-01-11T06:43:20.845Z,421.94
2019-01-11T06:44:20.806Z,422.77
2019-01-11T06:45:20.786Z,419.81
2019-01-11T06:46:20.832Z,420.40
2019-01-11T06:47:20.786Z,422.15
2019-01-11T06:48:20.801Z,422.43
2019-01-11T06:49:20.770Z,422.57
2019-01-11T06:50:20.761Z,420.78
2019-01-11T06:51:20.741Z,422.10
2019-01-11T06:52:20.736Z,421.07
2019-01-11T06:53:20.755Z,421.78
2019-01-11T06:54:20.719Z,420.95
2019-01-11T06:55:20.729Z,422.61
2019-01-11T06:56:20.689Z,422.02
2019-01-11T06:57:20.748Z,422.26
2019-01-11T06:58:20.693Z,419.19
2019-01-11T06:59:20.683Z,422.33
2019-01-11T07:00:20.638Z,420.95
2019-01-11T07:01:20.650Z,419.89
2019-01-11T07:02:20.610Z,422.63
2019-01-11T07:03:21.784Z,421.42
2019-01-11T07:04:20.596Z,421.78
2019-01-11T07:05:20.588Z,421.47
2019-01-11T07:06:20.582Z,421.40
2019-01-11T07:07:20.587Z,421.21
2019-01-11T07:08:20.590Z,421.31
2019-01-11T07:09:20.580Z,421.52
2019-01-11T07:10:20.571Z,422.40
2019-01-11T07:11:20.536Z,419.47
2019-01-11T07:12:20.550Z,421.29
2019-01-11T07:13:20.529Z,421.32
2019-01-11T07:14:20.486Z,422.12
2019-01-11T07:15:20.502Z,421.94
2019-01-11T07:16:20.495Z,422.32
2019-01-11T07:17:20.468Z,422.48
2019-01-11T07:18:22.055Z,421.77
2019-01-11T07:19:20.502Z,420.73
2019-01-11T07:20:20.442Z,422.22
2019-01-11T07:21:20.545Z,421.04
2019-01-11T07:22:20.422Z,422.21
2019-01-11T07:23:20.440Z,419.89
2019-01-11T07:24:20.395Z,419.31
2019-01-11T07:25:20.401Z,420.29
2019-01-11T07:26:20.409Z,421.83
2019-01-11T07:27:20.378Z,420.54
2019-01-11T07:28:20.373Z,422.04
2019-01-11T07:29:20.348Z,420.76
2019-01-11T07:30:20.327Z,422.12
2019-01-11T07:31:20.310Z,422.04
2019-01-11T07:32:20.312Z,421.76
2019-01-11T07:33:20.320Z,420.91
2019-01-11T07:34:20.288Z,421.65
2019-01-11T07:35:21.181Z,422.75
2019-01-11T07:36:20.473Z,421.84
2019-01-11T07:37:20.442Z,422.31
2019-01-11T07:38:20.316Z,420.26
2019-01-11T07:39:20.244Z,421.79
2019-01-11T07:40:20.227Z,421.48
2019-01-11T07:41:20.222Z,421.42
2019-01-11T07:42:20.225Z,420.84
2019-01-11T07:43:20.218Z,418.60
2019-01-11T07:44:20.196Z,422.48
2019-01-11T07:45:20.172Z,420.42
2019-01-11T07:46:21.021Z,421.44
2019-01-11T07:47:20.157Z,422.33
2019-01-11T07:48:20.527Z,421.62
2019-01-11T07:49:23.238Z,421.13
2019-01-11T07:50:20.123Z,421.84
2019-01-11T07:51:20.109Z,422.35
2019-01-11T07:52:20.122Z,421.54
2019-01-11T07:53:20.138Z,420.60
2019-01-11T07:54:20.077Z,421.58
2019-01-11T07:55:27.248Z,421.89
2019-01-11T07:56:20.065Z,421.84
2019-01-11T07:57:20.063Z,421.76
2019-01-11T07:58:20.102Z,421.06
2019-01-11T07:59:20.018Z,422.23
2019-01-11T08:00:21.120Z,420.47
2019-01-11T08:01:20.032Z,421.20
2019-01-11T08:02:20.003Z,419.23
2019-01-11T08:03:20.064Z,421.44
2019-01-11T08:04:20.002Z,419.93
2019-01-11T08:05:19.992Z,420.92
2019-01-11T08:06:19.959Z,421.66
2019-01-11T08:07:19.997Z,421.67
2019-01-11T08:08:20.534Z,421.11
2019-01-11T08:09:19.926Z,421.42
2019-01-11T08:10:19.936Z,419.64
2019-01-11T08:11:19.915Z,419.33
2019-01-11T08:12:19.905Z,421.71
2019-01-11T08:13:19.873Z,421.50
2019-01-11T08:14:19.865Z,421.52
2019-01-11T08:15:19.866Z,421.42
2019-01-11T08:16:19.860Z,419.79
2019-01-11T08:17:19.878Z,422.47
2019-01-11T08:18:27.983Z,421.34
2019-01-11T08:19:27.865Z,421.19
2019-01-11T08:20:28.496Z,422.10
2019-01-11T08:21:19.857Z,420.61
2019-01-11T08:22:19.989Z,420.75
2019-01-11T08:23:19.838Z,420.59
2019-01-11T08:24:19.779Z,420.77
2019-01-11T08:25:19.747Z,421.89
2019-01-11T08:26:19.748Z,422.30
2019-01-11T08:27:19.766Z,419.81
2019-01-11T08:28:19.770Z,421.58
2019-01-11T08:29:19.749Z,421.46
2019-01-11T08:30:19.711Z,420.86
2019-01-11T08:31:19.712Z,422.35
2019-01-11T08:32:19.689Z,421.58
2019-01-11T08:33:19.701Z,421.15
2019-01-11T08:34:20.648Z,422.03
2019-01-11T08:35:19.669Z,422.58
2019-01-11T08:36:19.663Z,422.31
2019-01-11T08:37:19.656Z,421.77
2019-01-11T08:38:19.612Z,421.68
2019-01-11T08:39:19.871Z,421.59
2019-01-11T08:40:19.623Z,421.96
2019-01-11T08:41:19.595Z,421.16
2019-01-11T08:42:19.583Z,419.78
2019-01-11T08:43:19.564Z,422.39
2019-01-11T08:44:19.640Z,421.87
2019-01-11T08:45:19.602Z,421.37
2019-01-11T08:46:19.607Z,418.90
2019-01-11T08:47:19.571Z,421.34
2019-01-11T08:48:19.548Z,421.93
2019-01-11T08:49:19.519Z,421.95
2019-01-11T08:50:19.489Z,419.86
2019-01-11T08:51:19.496Z,422.73
2019-01-11T08:52:19.493Z,422.09
2019-01-11T08:53:19.469Z,422.09
2019-01-11T08:54:19.476Z,421.75
2019-01-11T08:55:19.437Z,422.71
2019-01-11T08:56:19.441Z,421.91
2019-01-11T08:57:19.430Z,422.49
2019-01-11T08:58:19.441Z,420.68
2019-01-11T08:59:19.469Z,422.19
2019-01-11T09:00:19.410Z,421.15
2019-01-11T09:01:19.380Z,421.62
2019-01-11T09:02:19.365Z,421.37
2019-01-11T09:03:19.372Z,422.38
2019-01-11T09:04:19.381Z,421.39
2019-01-11T09:05:19.346Z,421.78
2019-01-11T09:06:19.325Z,420.43
2019-01-11T09:07:19.328Z,422.15
2019-01-11T09:08:20.132Z,422.04
2019-01-11T09:09:19.429Z,422.49
2019-01-11T09:10:23.301Z,422.18
2019-01-11T09:11:20.275Z,421.66
2019-01-11T09:12:19.273Z,421.80
2019-01-11T09:13:19.262Z,422.11
2019-01-11T09:14:19.260Z,419.45
2019-01-11T09:15:27.322Z,422.93
2019-01-11T09:16:20.760Z,421.36
2019-01-11T09:17:27.317Z,421.65
2019-01-11T09:18:27.267Z,421.52
2019-01-11T09:19:26.269Z,421.86
2019-01-11T09:20:19.206Z,419.08
2019-01-11T09:21:28.265Z,420.21
2019-01-11T09:22:27.773Z,422.11
2019-01-11T09:23:26.228Z,420.71
2019-01-11T09:24:27.217Z,422.06
2019-01-11T09:25:19.134Z,420.13
2019-01-11T09:26:27.912Z,420.96
2019-01-11T09:28:31.850Z,419.88
2019-01-11T09:29:31.043Z,421.81
2019-01-11T09:30:39.128Z,420.92
2019-01-11T09:31:31.038Z,422.68
2019-01-11T09:32:31.010Z,421.51
2019-01-11T09:33:30.985Z,420.20
2019-01-11T09:34:30.981Z,422.25
2019-01-11T09:35:30.955Z,422.20
2019-01-11T09:36:30.927Z,421.95
2019-01-11T09:37:30.946Z,418.48
2019-01-11T09:38:30.928Z,422.29
2019-01-11T09:39:30.925Z,418.87
2019-01-11T09:40:30.910Z,421.58
2019-01-11T09:41:30.895Z,422.29
2019-01-11T09:42:30.875Z,421.11
2019-01-11T09:43:30.896Z,421.46
2019-01-11T09:44:30.893Z,422.06
2019-01-11T09:45:30.876Z,420.97
2019-01-11T09:46:30.830Z,422.04
2019-01-11T09:47:30.832Z,421.72
2019-01-11T09:48:30.815Z,420.95
2019-01-11T09:49:30.838Z,421.39
2019-01-11T09:50:30.809Z,420.75
2019-01-11T09:51:30.805Z,420.92
2019-01-11T09:52:30.806Z,421.34
2019-01-11T09:53:30.768Z,420.57
2019-01-11T09:54:30.773Z,420.50
2019-01-11T09:55:30.761Z,420.74
2019-01-11T09:56:30.757Z,420.02
2019-01-11T09:57:30.768Z,421.28
2019-01-11T09:58:30.718Z,421.64
2019-01-11T09:59:35.080Z,418.98
2019-01-11T10:00:30.702Z,420.03
2019-01-11T10:01:30.746Z,418.73
2019-01-11T10:02:30.696Z,421.53
2019-01-11T10:03:30.687Z,421.12
2019-01-11T10:04:30.685Z,420.85
2019-01-11T10:05:30.640Z,421.32
2019-01-11T10:06:30.635Z,421.21
2019-01-11T10:07:30.632Z,419.90
2019-01-11T10:08:30.615Z,421.83
2019-01-11T10:09:30.617Z,421.24
2019-01-11T10:10:30.585Z,422.02
2019-01-11T10:11:30.576Z,421.31
2019-01-11T10:12:30.573Z,420.95
2019-01-11T10:13:30.573Z,422.05
2019-01-11T10:14:30.570Z,420.32
2019-01-11T10:15:30.582Z,421.59
2019-01-11T10:16:30.542Z,420.51
2019-01-11T10:17:30.502Z,422.07
2019-01-11T10:18:30.512Z,421.40
2019-01-11T10:19:30.511Z,421.75
2019-01-11T10:20:30.493Z,421.38
2019-01-11T10:21:30.494Z,421.53
2019-01-11T10:22:30.456Z,420.78
2019-01-11T10:23:30.448Z,421.49
2019-01-11T10:24:30.464Z,418.40
2019-01-11T10:25:30.463Z,420.30
2019-01-11T10:26:30.508Z,420.84
2019-01-11T10:27:30.460Z,421.30
2019-01-11T10:28:30.397Z,420.30
2019-01-11T10:29:30.416Z,421.49
2019-01-11T10:30:30.392Z,420.90
2019-01-11T10:31:30.402Z,420.10
2019-01-11T10:32:30.375Z,419.60
2019-01-11T10:33:35.968Z,421.35
2019-01-11T10:34:31.428Z,420.95
2019-01-11T10:35:30.463Z,421.83
2019-01-11T10:36:30.335Z,420.87
2019-01-11T10:37:30.329Z,421.42
2019-01-11T10:38:30.303Z,420.99
2019-01-11T10:39:30.326Z,420.22
2019-01-11T10:40:30.284Z,421.12
2019-01-11T10:41:30.294Z,420.05
2019-01-11T10:42:30.290Z,420.02
2019-01-11T10:43:30.250Z,419.92
2019-01-11T10:44:30.245Z,418.86
2019-01-11T10:45:30.251Z,420.33
2019-01-11T10:46:30.224Z,420.13
2019-01-11T10:47:30.224Z,419.75
2019-01-11T10:48:30.207Z,420.93
2019-01-11T10:49:30.213Z,418.75
2019-01-11T10:50:30.198Z,419.73
2019-01-11T10:51:30.197Z,420.60
2019-01-11T10:52:30.171Z,420.28
2019-01-11T10:53:30.145Z,420.80
2019-01-11T10:54:30.150Z,419.42
2019-01-11T10:55:30.131Z,418.02
2019-01-11T10:56:30.119Z,421.14
2019-01-11T10:57:30.100Z,420.17
2019-01-11T10:58:30.647Z,419.98
2019-01-11T10:59:30.087Z,420.54
2019-01-11T11:00:30.080Z,421.08
2019-01-11T11:01:30.062Z,420.77
2019-01-11T11:02:30.054Z,417.47
2019-01-11T11:03:30.059Z,419.82
2019-01-11T11:04:30.022Z,419.90
2019-01-11T11:05:30.036Z,421.01
2019-01-11T11:06:30.036Z,420.80
2019-01-11T11:07:30.049Z,419.09
2019-01-11T11:08:30.004Z,420.51
2019-01-11T11:09:29.965Z,420.73
2019-01-11T11:10:29.994Z,420.69
2019-01-11T11:11:29.964Z,420.93
2019-01-11T11:12:29.950Z,421.15
2019-01-11T11:13:37.682Z,421.11
2019-01-11T11:14:37.981Z,420.69
2019-01-11T11:15:29.945Z,421.49
2019-01-11T11:16:32.981Z,421.42
2019-01-11T11:17:29.912Z,419.92
2019-01-11T11:18:29.881Z,420.22
2019-01-11T11:19:29.866Z,419.88
2019-01-11T11:20:29.877Z,419.80
2019-01-11T11:21:34.657Z,420.27
2019-01-11T11:22:30.861Z,421.26
2019-01-11T11:23:29.847Z,420.77
2019-01-11T11:24:29.817Z,421.14
2019-01-11T11:25:30.192Z,420.51
2019-01-11T11:26:29.796Z,421.47
2019-01-11T11:27:29.798Z,419.29
2019-01-11T11:28:29.848Z,419.60
2019-01-11T11:29:29.751Z,418.91
2019-01-11T11:30:29.779Z,420.55
2019-01-11T11:31:29.733Z,420.62
2019-01-11T11:32:29.732Z,420.91
2019-01-11T11:33:29.741Z,421.34
2019-01-11T11:34:29.709Z,419.34
2019-01-11T11:35:29.741Z,420.58
2019-01-11T11:36:29.697Z,420.24
2019-01-11T11:37:29.692Z,421.33
2019-01-11T11:38:29.697Z,418.61
2019-01-11T11:39:29.666Z,421.43
2019-01-11T11:40:29.670Z,419.52
2019-01-11T11:41:29.682Z,421.50
2019-01-11T11:42:36.753Z,420.81
2019-01-11T11:43:29.630Z,420.64
2019-01-11T11:44:29.597Z,421.00
2019-01-11T11:45:29.653Z,421.48
2019-01-11T11:46:29.586Z,421.07
2019-01-11T11:47:29.564Z,419.65
2019-01-11T11:48:29.563Z,419.88
2019-01-11T11:49:29.564Z,420.58
2019-01-11T11:50:29.587Z,421.41
2019-01-11T11:51:29.516Z,420.85
2019-01-11T11:52:29.522Z,421.87
2019-01-11T11:53:29.512Z,420.23
2019-01-11T11:54:29.498Z,420.42
2019-01-11T11:55:29.533Z,420.54
2019-01-11T11:56:29.510Z,420.94
2019-01-11T11:57:29.475Z,419.37
2019-01-11T11:58:30.214Z,420.69
2019-01-11T11:59:29.447Z,419.21
2019-01-11T12:00:29.473Z,419.99
2019-01-11T12:01:29.443Z,421.12
2019-01-11T12:02:29.424Z,420.80
2019-01-11T12:03:29.444Z,419.52
2019-01-11T12:04:29.399Z,420.34
2019-01-11T12:05:29.409Z,419.85
2019-01-11T12:06:29.397Z,419.57
2019-01-11T12:07:29.350Z,420.65
2019-01-11T12:08:29.373Z,421.02
2019-01-11T12:09:29.340Z,420.53
2019-01-11T12:10:29.378Z,419.70
2019-01-11T12:11:29.326Z,420.57
2019-01-11T12:12:29.314Z,419.91
2019-01-11T12:13:29.316Z,420.64
2019-01-11T12:14:29.277Z,420.73
2019-01-11T12:15:29.305Z,421.35
2019-01-11T12:16:29.287Z,420.32
2019-01-11T12:17:29.258Z,420.48
2019-01-11T12:18:29.277Z,420.53
2019-01-11T12:19:29.226Z,420.00
2019-01-11T12:20:29.234Z,420.54
2019-01-11T12:21:29.220Z,418.45
2019-01-11T12:22:29.225Z,419.21
2019-01-11T12:23:29.195Z,421.54
2019-01-11T12:24:29.179Z,420.53
2019-01-11T12:25:29.268Z,420.02
2019-01-11T12:26:29.166Z,419.70
2019-01-11T12:27:29.161Z,420.32
2019-01-11T12:28:29.150Z,419.65
2019-01-11T12:29:29.190Z,418.67
2019-01-11T12:30:29.146Z,419.97